createdAt,value
2022-08-02T00:00:55.358Z,1.92
2022-08-02T00:01:57.711Z,2.13
2022-08-02T00:02:59.560Z,1.92
2022-08-02T00:04:01.579Z,1.60
2022-08-02T00:05:04.387Z,1.83
2022-08-02T00:06:06.244Z,2.00
2022-08-02T00:07:07.950Z,2.08
2022-08-02T00:08:09.812Z,1.83
2022-08-02T00:09:11.740Z,1.77
2022-08-02T00:10:13.586Z,1.67
2022-08-02T00:11:15.359Z,2.28
2022-08-02T00:12:17.261Z,2.20
2022-08-02T00:13:19.042Z,2.10
2022-08-02T00:14:20.796Z,2.08
2022-08-02T00:15:22.720Z,1.70
2022-08-02T00:16:37.385Z,2.13
2022-08-02T00:17:40.409Z,1.92
2022-08-02T00:18:42.615Z,1.92
2022-08-02T00:19:44.770Z,2.00
2022-08-02T00:20:46.502Z,2.30
2022-08-02T00:21:48.447Z,2.15
2022-08-02T00:22:50.181Z,2.45
2022-08-02T00:24:27.960Z,2.30
2022-08-02T00:25:13.620Z,2.15
2022-08-02T00:26:15.333Z,2.15
2022-08-02T00:27:17.041Z,2.38
2022-08-02T00:28:27.003Z,1.85
2022-08-02T00:29:32.297Z,2.38
2022-08-02T00:30:34.127Z,1.90
2022-08-02T00:31:35.879Z,2.75
2022-08-02T00:32:37.589Z,2.38
2022-08-02T00:34:27.639Z,2.30
2022-08-02T00:35:01.360Z,2.35
2022-08-02T00:36:03.820Z,2.25
2022-08-02T00:37:05.880Z,2.25
2022-08-02T00:38:07.823Z,2.40
2022-08-02T00:39:33.901Z,2.30
2022-08-02T00:40:31.783Z,2.25
2022-08-02T00:41:33.500Z,1.90
2022-08-02T00:42:35.265Z,2.47
2022-08-02T00:43:37.023Z,2.40
2022-08-02T00:44:39.147Z,2.65
2022-08-02T00:46:02.067Z,2.42
2022-08-02T00:47:04.205Z,1.95
2022-08-02T00:48:07.851Z,2.20
2022-08-02T00:49:09.835Z,2.40
2022-08-02T00:50:11.956Z,2.20
2022-08-02T00:51:14.059Z,2.20
2022-08-02T00:52:15.819Z,2.55
2022-08-02T00:53:17.556Z,2.28
2022-08-02T00:54:19.276Z,2.22
2022-08-02T00:55:30.950Z,2.50
2022-08-02T00:56:33.530Z,2.45
2022-08-02T00:57:35.412Z,2.60
2022-08-02T00:58:37.188Z,2.40
2022-08-02T00:59:38.889Z,2.70
2022-08-02T01:00:40.883Z,2.42
2022-08-02T01:01:57.532Z,2.20
2022-08-02T01:02:59.760Z,2.50
2022-08-02T01:04:01.621Z,2.40
2022-08-02T01:05:04.304Z,2.40
2022-08-02T01:06:13.400Z,2.50
2022-08-02T01:07:15.815Z,2.55
2022-08-02T01:08:17.668Z,2.22
2022-08-02T01:09:19.578Z,2.65
2022-08-02T01:10:21.342Z,2.67
2022-08-02T01:11:23.054Z,2.38
2022-08-02T01:12:24.959Z,2.60
2022-08-02T01:13:27.673Z,2.60
2022-08-02T01:14:29.760Z,2.70
2022-08-02T01:15:36.153Z,2.58
2022-08-02T01:16:52.514Z,2.80
2022-08-02T01:18:05.510Z,2.90
2022-08-02T01:19:27.403Z,2.90
2022-08-02T01:20:53.202Z,3.03
2022-08-02T01:22:04.948Z,3.20
2022-08-02T01:23:35.811Z,2.83
2022-08-02T01:25:17.274Z,3.28
2022-08-02T01:26:38.559Z,3.05
2022-08-02T01:28:01.104Z,3.30
2022-08-02T01:29:12.316Z,2.85
2022-08-02T01:30:14.918Z,3.50
2022-08-02T01:32:42.028Z,3.25
2022-08-02T01:33:56.824Z,2.95
2022-08-02T01:35:13.665Z,2.92
2022-08-02T01:36:18.756Z,3.65
2022-08-02T01:37:30.168Z,3.45
2022-08-02T01:38:39.371Z,3.28
2022-08-02T01:39:44.239Z,3.47
2022-08-02T01:40:48.104Z,3.55
2022-08-02T01:41:51.993Z,3.80
2022-08-02T01:43:01.934Z,4.13
2022-08-02T01:44:07.958Z,4.03
2022-08-02T01:45:12.356Z,4.07
2022-08-02T01:46:16.598Z,4.05
2022-08-02T01:47:22.905Z,3.72
2022-08-02T01:48:27.891Z,3.92
2022-08-02T01:49:33.169Z,4.30
2022-08-02T01:50:37.312Z,3.90
2022-08-02T01:52:00.461Z,4.20
2022-08-02T01:53:16.091Z,4.13
2022-08-02T01:54:19.737Z,4.00
2022-08-02T01:55:57.018Z,3.92
2022-08-02T01:56:59.471Z,4.05
2022-08-02T01:58:06.230Z,4.28
2022-08-02T01:59:11.463Z,4.40
2022-08-02T02:00:14.616Z,4.35
2022-08-02T02:01:18.994Z,4.00
2022-08-02T02:02:22.765Z,4.40
2022-08-02T02:03:26.426Z,4.63
2022-08-02T02:04:30.765Z,4.47
2022-08-02T02:05:33.797Z,4.57
2022-08-02T02:06:38.064Z,4.88
2022-08-02T02:07:42.109Z,4.30
2022-08-02T02:08:45.047Z,4.45
2022-08-02T02:09:50.769Z,4.88
2022-08-02T02:10:54.522Z,4.40
2022-08-02T02:12:14.004Z,4.82
2022-08-02T02:13:20.012Z,4.90
2022-08-02T02:14:22.056Z,4.25
2022-08-02T02:15:24.844Z,4.78
2022-08-02T02:16:28.273Z,4.03
2022-08-02T02:17:52.888Z,4.43
2022-08-02T02:18:55.248Z,4.20
2022-08-02T02:20:00.171Z,4.20
2022-08-02T02:21:02.008Z,4.68
2022-08-02T02:22:04.190Z,4.10
2022-08-02T02:23:06.001Z,4.50
2022-08-02T02:24:08.283Z,4.25
2022-08-02T02:25:15.387Z,5.00
2022-08-02T02:26:20.848Z,4.55
2022-08-02T02:27:34.244Z,4.25
2022-08-02T02:28:41.073Z,4.15
2022-08-02T02:29:47.260Z,4.00
2022-08-02T02:30:53.497Z,4.20
2022-08-02T02:31:56.931Z,3.80
2022-08-02T02:33:01.382Z,3.88
2022-08-02T02:34:07.428Z,3.80
2022-08-02T02:35:11.322Z,4.10
2022-08-02T02:36:16.204Z,4.50
2022-08-02T02:37:23.236Z,4.03
2022-08-02T02:38:28.481Z,4.00
2022-08-02T02:39:32.697Z,4.32
2022-08-02T02:40:37.449Z,4.25
2022-08-02T02:41:41.098Z,3.58
2022-08-02T02:42:49.166Z,4.25
2022-08-02T02:43:55.527Z,3.97
2022-08-02T02:44:59.160Z,4.10
2022-08-02T02:46:03.559Z,3.70
2022-08-02T02:47:06.411Z,3.90
2022-08-02T02:48:10.154Z,3.75
2022-08-02T02:49:13.114Z,4.00
2022-08-02T02:50:16.377Z,4.05
2022-08-02T02:51:19.917Z,4.65
2022-08-02T02:52:21.812Z,4.00
2022-08-02T02:53:24.491Z,3.60
2022-08-02T02:54:34.457Z,3.58
2022-08-02T02:55:38.399Z,3.60
2022-08-02T02:56:41.991Z,3.58
2022-08-02T02:57:45.255Z,4.00
2022-08-02T02:58:47.588Z,4.00
2022-08-02T02:59:50.051Z,3.97
2022-08-02T03:01:10.670Z,3.83
2022-08-02T03:02:14.973Z,4.00
2022-08-02T03:03:21.243Z,3.88
2022-08-02T03:04:25.616Z,3.78
2022-08-02T03:05:27.638Z,4.10
2022-08-02T03:06:30.367Z,3.90
2022-08-02T03:07:35.220Z,3.83
2022-08-02T03:08:36.946Z,3.97
2022-08-02T03:09:38.878Z,3.50
2022-08-02T03:10:42.550Z,3.75
2022-08-02T03:11:44.986Z,3.85
2022-08-02T03:12:47.049Z,4.30
2022-08-02T03:13:49.184Z,3.60
2022-08-02T03:14:51.167Z,3.75
2022-08-02T03:15:53.818Z,3.80
2022-08-02T03:16:56.141Z,3.60
2022-08-02T03:17:58.028Z,3.80
2022-08-02T03:19:03.549Z,4.22
2022-08-02T03:20:09.688Z,4.28
2022-08-02T03:21:14.195Z,4.15
2022-08-02T03:22:15.915Z,4.13
2022-08-02T03:23:17.596Z,3.58
2022-08-02T03:24:27.819Z,3.70
2022-08-02T03:25:30.455Z,3.67
2022-08-02T03:26:32.141Z,3.83
2022-08-02T03:27:33.865Z,3.78
2022-08-02T03:28:36.241Z,4.40
2022-08-02T03:29:38.315Z,3.88
2022-08-02T03:30:40.308Z,3.88
2022-08-02T03:31:45.480Z,4.10
2022-08-02T03:32:48.563Z,3.80
2022-08-02T03:33:50.459Z,3.75
2022-08-02T03:34:52.822Z,3.63
2022-08-02T03:35:59.085Z,3.80
2022-08-02T03:37:02.366Z,3.75
2022-08-02T03:38:05.572Z,3.80
2022-08-02T03:39:08.068Z,3.92
2022-08-02T03:40:11.593Z,3.75
2022-08-02T03:41:17.095Z,3.67
2022-08-02T03:42:20.643Z,4.40
2022-08-02T03:43:23.087Z,4.60
2022-08-02T03:44:31.473Z,4.00
2022-08-02T03:45:34.052Z,3.88
2022-08-02T03:46:39.632Z,3.47
2022-08-02T03:47:42.548Z,3.53
2022-08-02T03:48:44.834Z,3.67
2022-08-02T03:49:47.064Z,3.40
2022-08-02T03:50:49.200Z,3.22
2022-08-02T03:51:51.224Z,3.30
2022-08-02T03:52:53.664Z,3.13
2022-08-02T03:53:56.665Z,3.40
2022-08-02T03:54:58.509Z,2.95
2022-08-02T03:56:01.168Z,3.28
2022-08-02T03:57:05.512Z,3.08
2022-08-02T03:58:22.411Z,3.30
2022-08-02T03:59:24.081Z,3.38
2022-08-02T04:00:25.818Z,3.22
2022-08-02T04:01:28.251Z,3.35
2022-08-02T04:02:30.121Z,2.78
2022-08-02T04:03:31.858Z,2.70
2022-08-02T04:04:33.565Z,3.15
2022-08-02T04:05:35.444Z,3.70
2022-08-02T04:06:57.354Z,2.92
2022-08-02T04:08:33.366Z,3.28
2022-08-02T04:09:21.281Z,2.55
2022-08-02T04:10:23.010Z,2.75
2022-08-02T04:11:30.854Z,2.90
2022-08-02T04:12:32.858Z,3.00
2022-08-02T04:13:37.237Z,2.83
2022-08-02T04:14:39.108Z,2.88
2022-08-02T04:15:44.237Z,2.90
2022-08-02T04:16:53.625Z,3.00
2022-08-02T04:17:57.552Z,2.90
2022-08-02T04:19:03.256Z,3.08
2022-08-02T04:20:29.832Z,2.30
2022-08-02T04:21:48.563Z,2.90
2022-08-02T04:23:05.345Z,2.30
2022-08-02T04:24:10.982Z,2.80
2022-08-02T04:25:17.293Z,3.10
2022-08-02T04:26:26.819Z,2.90
2022-08-02T04:27:50.765Z,2.50
2022-08-02T04:28:54.345Z,3.13
2022-08-02T04:29:57.772Z,2.75
2022-08-02T04:31:01.360Z,2.97
2022-08-02T04:32:04.767Z,3.25
2022-08-02T04:33:07.757Z,3.38
2022-08-02T04:34:14.500Z,3.40
2022-08-02T04:35:19.703Z,2.97
2022-08-02T04:36:31.011Z,3.10
2022-08-02T04:37:34.667Z,2.90
2022-08-02T04:38:36.912Z,2.90
2022-08-02T04:39:40.457Z,3.00
2022-08-02T04:40:51.304Z,3.33
2022-08-02T04:41:57.577Z,3.30
2022-08-02T04:42:59.720Z,3.42
2022-08-02T04:44:01.584Z,2.95
2022-08-02T04:45:05.423Z,3.22
2022-08-02T04:46:07.732Z,3.70
2022-08-02T04:47:09.445Z,3.63
2022-08-02T04:48:11.150Z,3.70
2022-08-02T04:49:13.037Z,3.58
2022-08-02T04:50:14.797Z,3.65
2022-08-02T04:51:16.545Z,3.10
2022-08-02T04:52:18.422Z,3.22
2022-08-02T04:53:20.208Z,3.42
2022-08-02T04:54:22.180Z,3.28
2022-08-02T04:55:28.654Z,3.00
2022-08-02T04:56:31.126Z,3.45
2022-08-02T04:57:52.949Z,3.10
2022-08-02T04:58:55.108Z,3.40
2022-08-02T04:59:57.013Z,3.20
2022-08-02T05:00:58.951Z,3.10
2022-08-02T05:02:00.776Z,3.00
2022-08-02T05:03:02.550Z,3.10
2022-08-02T05:04:04.349Z,3.13
2022-08-02T05:05:10.171Z,3.22
2022-08-02T05:06:19.472Z,2.83
2022-08-02T05:07:21.464Z,2.90
2022-08-02T05:08:23.233Z,3.08
2022-08-02T05:09:24.972Z,3.08
2022-08-02T05:10:26.938Z,2.90
2022-08-02T05:11:34.198Z,3.08
2022-08-02T05:12:38.606Z,2.88
2022-08-02T05:13:58.914Z,3.20
2022-08-02T05:15:01.585Z,3.42
2022-08-02T05:16:04.616Z,3.45
2022-08-02T05:17:06.790Z,3.53
2022-08-02T05:18:08.932Z,2.90
2022-08-02T05:19:10.650Z,3.35
2022-08-02T05:20:13.731Z,2.85
2022-08-02T05:21:15.631Z,2.60
2022-08-02T05:22:17.585Z,3.47
2022-08-02T05:23:19.376Z,3.25
2022-08-02T05:24:21.149Z,3.40
2022-08-02T05:25:22.994Z,3.05
2022-08-02T05:26:24.874Z,3.20
2022-08-02T05:27:26.751Z,3.78
2022-08-02T05:28:28.537Z,3.20
2022-08-02T05:29:31.788Z,3.10
2022-08-02T05:30:33.531Z,3.17
2022-08-02T05:31:36.871Z,3.10
2022-08-02T05:32:49.382Z,2.95
2022-08-02T05:33:51.301Z,2.90
2022-08-02T05:34:53.709Z,3.40
2022-08-02T05:35:55.496Z,3.53
2022-08-02T05:36:58.139Z,3.50
2022-08-02T05:38:01.907Z,3.10
2022-08-02T05:39:04.993Z,3.28
2022-08-02T05:40:13.207Z,3.40
2022-08-02T05:41:15.088Z,2.97
2022-08-02T05:42:16.904Z,3.35
2022-08-02T05:43:18.734Z,2.75
2022-08-02T05:44:22.864Z,3.30
2022-08-02T05:45:25.284Z,3.50
2022-08-02T05:46:27.214Z,2.70
2022-08-02T05:47:29.039Z,3.20
2022-08-02T05:48:32.207Z,3.17
2022-08-02T05:49:34.189Z,3.38
2022-08-02T05:50:39.981Z,2.80
2022-08-02T05:52:11.003Z,3.72
2022-08-02T05:53:37.444Z,3.30
2022-08-02T05:54:39.628Z,4.15
2022-08-02T05:55:48.356Z,3.60
2022-08-02T05:57:05.625Z,3.25
2022-08-02T05:58:18.029Z,2.88
2022-08-02T05:59:50.952Z,2.97
2022-08-02T06:00:56.360Z,3.20
2022-08-02T06:02:00.972Z,3.10
2022-08-02T06:03:16.724Z,3.00
2022-08-02T06:04:30.576Z,2.33
2022-08-02T06:05:41.113Z,2.33
2022-08-02T06:06:44.721Z,2.25
2022-08-02T06:07:48.301Z,2.05
2022-08-02T06:09:03.895Z,2.53
2022-08-02T06:10:06.842Z,2.38
2022-08-02T06:11:15.275Z,2.65
2022-08-02T06:12:18.577Z,2.40
2022-08-02T06:13:20.805Z,1.65
2022-08-02T06:14:22.747Z,2.00
2022-08-02T06:15:32.964Z,2.20
2022-08-02T06:16:42.077Z,2.38
2022-08-02T06:17:45.611Z,2.67
2022-08-02T06:18:49.466Z,2.60
2022-08-02T06:19:53.697Z,2.88
2022-08-02T06:20:58.767Z,2.60
2022-08-02T06:22:34.022Z,2.30
2022-08-02T06:23:58.022Z,2.40
2022-08-02T06:25:02.373Z,2.42
2022-08-02T06:26:04.912Z,2.45
2022-08-02T06:27:06.759Z,2.50
2022-08-02T06:28:11.414Z,4.38
2022-08-02T06:29:14.627Z,3.00
2022-08-02T06:30:16.892Z,1.80
2022-08-02T06:31:19.746Z,2.15
2022-08-02T06:32:22.180Z,2.22
2022-08-02T06:33:24.221Z,4.65
2022-08-02T06:34:26.319Z,3.10
2022-08-02T06:35:40.129Z,2.40
2022-08-02T06:37:06.445Z,1.70
2022-08-02T06:38:09.633Z,2.83
2022-08-02T06:39:41.070Z,2.22
2022-08-02T06:40:51.713Z,2.80
2022-08-02T06:41:58.387Z,2.33
2022-08-02T06:43:09.898Z,2.83
2022-08-02T06:44:44.769Z,2.30
2022-08-02T06:45:36.754Z,2.13
2022-08-02T06:47:10.259Z,2.35
2022-08-02T06:48:01.045Z,2.08
2022-08-02T06:49:03.283Z,1.75
2022-08-02T06:50:05.681Z,1.83
2022-08-02T06:51:07.911Z,2.20
2022-08-02T06:52:10.091Z,2.20
2022-08-02T06:53:13.093Z,2.28
2022-08-02T06:54:19.221Z,1.92
2022-08-02T06:55:21.180Z,2.30
2022-08-02T06:56:22.994Z,2.30
2022-08-02T06:57:24.730Z,1.90
2022-08-02T06:58:26.507Z,2.20
2022-08-02T06:59:28.270Z,1.80
2022-08-02T07:00:31.101Z,2.47
2022-08-02T07:01:38.555Z,2.40
2022-08-02T07:02:41.028Z,1.90
2022-08-02T07:03:43.063Z,1.67
2022-08-02T07:04:44.880Z,1.77
2022-08-02T07:05:48.704Z,2.22
2022-08-02T07:06:50.494Z,1.80
2022-08-02T07:07:52.591Z,1.80
2022-08-02T07:09:18.338Z,2.35
2022-08-02T07:10:16.173Z,2.42
2022-08-02T07:11:19.469Z,2.10
2022-08-02T07:12:21.241Z,1.80
2022-08-02T07:13:23.399Z,1.70
2022-08-02T07:14:25.371Z,1.75
2022-08-02T07:15:27.265Z,1.98
2022-08-02T07:16:29.155Z,1.88
2022-08-02T07:17:31.224Z,2.10
2022-08-02T07:18:34.313Z,2.00
2022-08-02T07:19:37.756Z,2.45
2022-08-02T07:20:40.056Z,2.55
2022-08-02T07:21:57.487Z,2.20
2022-08-02T07:23:03.811Z,1.90
2022-08-02T07:24:05.939Z,2.10
2022-08-02T07:25:08.845Z,1.95
2022-08-02T07:26:10.598Z,1.98
2022-08-02T07:27:13.116Z,1.55
2022-08-02T07:28:23.833Z,1.98
2022-08-02T07:29:26.623Z,1.65
2022-08-02T07:30:34.574Z,1.75
2022-08-02T07:31:36.355Z,1.80
2022-08-02T07:32:38.239Z,1.52
2022-08-02T07:33:42.369Z,1.70
2022-08-02T07:34:52.689Z,2.10
2022-08-02T07:35:57.373Z,2.00
2022-08-02T07:37:00.387Z,1.80
2022-08-02T07:38:03.985Z,1.77
2022-08-02T07:39:06.348Z,1.38
2022-08-02T07:40:13.520Z,1.30
2022-08-02T07:41:17.373Z,1.40
2022-08-02T07:42:19.427Z,1.65
2022-08-02T07:43:21.166Z,2.05
2022-08-02T07:44:23.687Z,1.50
2022-08-02T07:45:27.765Z,1.70
2022-08-02T07:46:29.533Z,1.50
2022-08-02T07:47:31.586Z,1.40
2022-08-02T07:48:33.578Z,1.65
2022-08-02T07:49:35.585Z,1.70
2022-08-02T07:50:37.508Z,1.50
2022-08-02T07:51:39.344Z,1.00
2022-08-02T07:52:41.536Z,1.10
2022-08-02T07:53:50.740Z,1.15
2022-08-02T07:54:53.577Z,1.30
2022-08-02T07:55:55.467Z,1.30
2022-08-02T07:56:58.445Z,1.40
2022-08-02T07:58:00.720Z,1.50
2022-08-02T07:59:02.558Z,1.77
2022-08-02T08:00:06.387Z,1.70
2022-08-02T08:01:08.110Z,1.33
2022-08-02T08:02:10.447Z,1.42
2022-08-02T08:03:12.692Z,1.33
2022-08-02T08:04:14.539Z,1.20
2022-08-02T08:05:16.342Z,2.00
2022-08-02T08:06:18.107Z,1.73
2022-08-02T08:07:20.456Z,1.90
2022-08-02T08:08:22.176Z,1.45
2022-08-02T08:09:23.946Z,1.73
2022-08-02T08:10:26.023Z,1.40
2022-08-02T08:11:27.762Z,1.70
2022-08-02T08:12:30.010Z,1.90
2022-08-02T08:13:31.721Z,1.90
2022-08-02T08:14:33.546Z,1.83
2022-08-02T08:15:35.676Z,1.70
2022-08-02T08:16:37.449Z,1.67
2022-08-02T08:17:39.224Z,1.60
2022-08-02T08:18:40.948Z,1.20
2022-08-02T08:19:50.990Z,1.50
2022-08-02T08:20:54.405Z,1.20
2022-08-02T08:21:56.283Z,1.77
2022-08-02T08:22:58.031Z,1.50
2022-08-02T08:23:59.904Z,1.27
2022-08-02T08:25:02.161Z,1.20
2022-08-02T08:26:06.027Z,1.40
2022-08-02T08:27:14.447Z,1.30
2022-08-02T08:28:16.228Z,1.60
2022-08-02T08:29:17.989Z,1.10
2022-08-02T08:30:22.100Z,1.10
2022-08-02T08:31:23.861Z,1.08
2022-08-02T08:32:27.428Z,1.67
2022-08-02T08:33:29.194Z,1.20
2022-08-02T08:34:31.411Z,1.42
2022-08-02T08:35:33.526Z,1.20
2022-08-02T08:36:35.295Z,1.40
2022-08-02T08:37:37.819Z,1.25
2022-08-02T08:38:39.841Z,1.38
2022-08-02T08:39:57.514Z,1.33
2022-08-02T08:41:01.454Z,1.20
2022-08-02T08:42:07.192Z,1.23
2022-08-02T08:43:08.988Z,1.40
2022-08-02T08:44:10.724Z,1.33
2022-08-02T08:45:12.504Z,1.27
2022-08-02T08:46:30.594Z,1.33
2022-08-02T08:47:40.662Z,1.23
2022-08-02T08:48:46.829Z,1.23
2022-08-02T08:49:55.065Z,1.45
2022-08-02T08:51:00.805Z,1.23
2022-08-02T08:52:06.041Z,1.33
2022-08-02T08:53:09.283Z,1.20
2022-08-02T08:54:17.408Z,1.20
2022-08-02T08:55:23.305Z,1.27
2022-08-02T08:56:39.820Z,1.10
2022-08-02T08:57:42.716Z,1.00
2022-08-02T08:58:47.537Z,1.25
2022-08-02T08:59:49.657Z,1.10
2022-08-02T09:00:51.610Z,1.40
2022-08-02T09:01:55.891Z,1.17
2022-08-02T09:02:59.321Z,1.02
2022-08-02T09:04:01.139Z,1.10
2022-08-02T09:05:03.130Z,1.13
2022-08-02T09:06:05.451Z,1.08
2022-08-02T09:07:07.208Z,1.23
2022-08-02T09:08:13.451Z,1.60
2022-08-02T09:09:18.706Z,1.17
2022-08-02T09:10:46.351Z,1.80
2022-08-02T09:11:48.176Z,1.48
2022-08-02T09:13:38.503Z,0.90
2022-08-02T09:14:33.010Z,1.27
2022-08-02T09:15:34.970Z,1.00
2022-08-02T09:16:44.205Z,1.27
2022-08-02T09:17:53.162Z,3.30
2022-08-02T09:18:55.363Z,1.30
2022-08-02T09:20:09.644Z,1.20
2022-08-02T09:21:12.456Z,1.30
2022-08-02T09:22:15.744Z,1.45
2022-08-02T09:23:18.894Z,1.02
2022-08-02T09:24:23.945Z,1.13
2022-08-02T09:25:25.674Z,1.52
2022-08-02T09:26:28.010Z,1.88
2022-08-02T09:27:35.892Z,1.30
2022-08-02T09:28:39.979Z,1.00
2022-08-02T09:30:11.505Z,1.17
2022-08-02T09:31:14.033Z,1.00
2022-08-02T09:32:18.001Z,1.33
2022-08-02T09:33:27.279Z,1.15
2022-08-02T09:34:45.020Z,1.40
2022-08-02T09:36:05.881Z,1.40
2022-08-02T09:37:31.194Z,1.27
2022-08-02T09:38:33.860Z,1.42
2022-08-02T09:39:46.649Z,1.20
2022-08-02T09:40:49.721Z,1.55
2022-08-02T09:41:51.459Z,1.10
2022-08-02T09:42:59.405Z,1.65
2022-08-02T09:44:06.520Z,1.42
2022-08-02T09:45:10.248Z,1.20
2022-08-02T09:46:24.116Z,1.40
2022-08-02T09:47:28.552Z,1.60
2022-08-02T09:48:32.882Z,1.25
2022-08-02T09:49:34.651Z,1.45
2022-08-02T09:50:38.583Z,1.08
2022-08-02T09:51:48.796Z,1.00
2022-08-02T09:52:50.727Z,0.97
2022-08-02T09:54:08.605Z,1.30
2022-08-02T09:55:11.637Z,1.13
2022-08-02T09:56:14.024Z,1.17
2022-08-02T09:57:38.389Z,1.13
2022-08-02T09:58:40.739Z,2.30
2022-08-02T09:59:52.888Z,1.63
2022-08-02T10:00:56.281Z,1.20
2022-08-02T10:02:02.195Z,1.20
2022-08-02T10:03:08.025Z,1.20
2022-08-02T10:04:17.399Z,1.10
2022-08-02T10:05:29.778Z,1.30
2022-08-02T10:06:37.668Z,1.00
2022-08-02T10:07:39.471Z,1.15
2022-08-02T10:08:41.432Z,1.30
2022-08-02T10:09:46.476Z,1.20
2022-08-02T10:10:49.563Z,1.10
2022-08-02T10:11:52.610Z,0.82
2022-08-02T10:12:54.654Z,1.33
2022-08-02T10:13:56.970Z,1.15
2022-08-02T10:14:59.747Z,0.93
2022-08-02T10:16:02.735Z,1.30
2022-08-02T10:17:07.647Z,1.10
2022-08-02T10:18:35.834Z,2.50
2022-08-02T10:20:02.035Z,2.17
2022-08-02T10:20:56.828Z,2.28
2022-08-02T10:22:06.993Z,1.80
2022-08-02T10:23:13.089Z,2.00
2022-08-02T10:24:36.366Z,0.90
2022-08-02T10:25:39.450Z,1.80
2022-08-02T10:26:44.421Z,1.27
2022-08-02T10:28:04.746Z,1.65
2022-08-02T10:29:10.007Z,1.30
2022-08-02T10:30:12.288Z,0.90
2022-08-02T10:31:18.593Z,1.45
2022-08-02T10:32:34.792Z,1.50
2022-08-02T10:33:39.200Z,1.70
2022-08-02T10:34:51.331Z,1.40
2022-08-02T10:36:04.560Z,1.20
2022-08-02T10:37:11.393Z,1.38
2022-08-02T10:38:18.408Z,1.20
2022-08-02T10:39:20.237Z,0.95
2022-08-02T10:40:28.378Z,0.98
2022-08-02T10:41:51.164Z,1.65
2022-08-02T10:42:54.532Z,2.58
2022-08-02T10:44:00.291Z,1.67
2022-08-02T10:45:15.032Z,1.50
2022-08-02T10:46:24.511Z,1.63
2022-08-02T10:47:26.705Z,1.15
2022-08-02T10:48:28.425Z,1.40
2022-08-02T10:49:39.616Z,1.45
2022-08-02T10:50:48.198Z,1.38
2022-08-02T10:52:02.136Z,1.27
2022-08-02T10:53:27.295Z,1.13
2022-08-02T10:54:56.457Z,1.10
2022-08-02T10:56:01.223Z,2.13
2022-08-02T10:57:03.762Z,1.30
2022-08-02T10:58:29.678Z,1.15
2022-08-02T10:59:31.571Z,1.38
2022-08-02T11:00:33.462Z,1.25
2022-08-02T11:01:43.860Z,1.30
2022-08-02T11:02:53.169Z,1.35
2022-08-02T11:04:00.581Z,1.20
2022-08-02T11:05:05.900Z,1.35
2022-08-02T11:06:25.636Z,1.50
2022-08-02T11:07:40.714Z,1.38
2022-08-02T11:08:42.639Z,1.20
2022-08-02T11:09:46.959Z,1.48
2022-08-02T11:10:49.137Z,1.40
2022-08-02T11:12:00.821Z,1.85
2022-08-02T11:13:15.523Z,1.35
2022-08-02T11:14:18.212Z,1.33
2022-08-02T11:15:20.131Z,1.40
2022-08-02T11:16:21.873Z,1.90
2022-08-02T11:17:24.985Z,1.58
2022-08-02T11:18:51.922Z,1.52
2022-08-02T11:20:08.993Z,1.45
2022-08-02T11:21:31.008Z,1.45
2022-08-02T11:22:32.737Z,1.27
2022-08-02T11:23:44.103Z,1.30
2022-08-02T11:24:47.774Z,1.33
2022-08-02T11:26:11.291Z,1.63
2022-08-02T11:27:21.978Z,1.30
2022-08-02T11:28:25.512Z,1.48
2022-08-02T11:29:38.555Z,1.38
2022-08-02T11:30:40.706Z,1.33
2022-08-02T11:31:44.165Z,1.40
2022-08-02T11:32:46.474Z,1.23
2022-08-02T11:33:52.346Z,1.48
2022-08-02T11:34:54.852Z,1.50
2022-08-02T11:36:03.085Z,1.55
2022-08-02T11:37:05.162Z,1.45
2022-08-02T11:38:20.960Z,1.85
2022-08-02T11:39:24.028Z,1.30
2022-08-02T11:40:37.618Z,1.60
2022-08-02T11:41:47.450Z,1.48
2022-08-02T11:42:53.726Z,1.47
2022-08-02T11:43:56.199Z,1.65
2022-08-02T11:44:58.160Z,1.67
2022-08-02T11:46:15.808Z,1.70
2022-08-02T11:47:19.833Z,1.42
2022-08-02T11:48:32.928Z,1.50
2022-08-02T11:49:34.781Z,1.83
2022-08-02T11:50:36.686Z,2.20
2022-08-02T11:51:38.673Z,1.23
2022-08-02T11:52:44.442Z,1.40
2022-08-02T11:53:58.713Z,1.60
2022-08-02T11:55:00.827Z,1.80
2022-08-02T11:56:02.961Z,1.30
2022-08-02T11:57:20.311Z,1.40
2022-08-02T11:58:22.740Z,1.70
2022-08-02T11:59:24.586Z,1.38
2022-08-02T12:00:26.907Z,1.70
2022-08-02T12:01:35.242Z,1.63
2022-08-02T12:02:49.447Z,1.60
2022-08-02T12:03:51.385Z,1.52
2022-08-02T12:05:02.090Z,1.65
2022-08-02T12:06:10.851Z,1.77
2022-08-02T12:07:18.761Z,1.38
2022-08-02T12:08:38.149Z,1.73
2022-08-02T12:09:41.391Z,1.65
2022-08-02T12:10:50.359Z,1.48
2022-08-02T12:11:52.338Z,1.63
2022-08-02T12:12:59.697Z,1.80
2022-08-02T12:14:01.445Z,1.50
2022-08-02T12:15:03.403Z,1.73
2022-08-02T12:16:30.544Z,1.95
2022-08-02T12:17:50.730Z,1.60
2022-08-02T12:19:11.017Z,1.75
2022-08-02T12:20:17.317Z,1.98
2022-08-02T12:21:27.077Z,1.77
2022-08-02T12:22:29.237Z,1.70
2022-08-02T12:23:31.209Z,1.77
2022-08-02T12:24:33.859Z,1.70
2022-08-02T12:25:35.865Z,1.70
2022-08-02T12:26:48.089Z,1.63
2022-08-02T12:27:53.263Z,1.40
2022-08-02T12:29:01.667Z,1.60
2022-08-02T12:30:07.715Z,1.75
2022-08-02T12:31:11.335Z,2.17
2022-08-02T12:32:24.049Z,1.45
2022-08-02T12:33:43.999Z,2.20
2022-08-02T12:35:05.012Z,2.33
2022-08-02T12:36:15.877Z,2.33
2022-08-02T12:37:25.960Z,1.80
2022-08-02T12:38:27.718Z,1.80
2022-08-02T12:39:40.394Z,1.60
2022-08-02T12:40:42.590Z,1.80
2022-08-02T12:41:54.286Z,1.45
2022-08-02T12:43:02.742Z,1.77
2022-08-02T12:44:16.545Z,1.75
2022-08-02T12:45:22.357Z,1.85
2022-08-02T12:46:25.138Z,1.85
2022-08-02T12:47:31.354Z,1.80
2022-08-02T12:48:52.307Z,1.90
2022-08-02T12:50:21.145Z,2.47
2022-08-02T12:51:50.915Z,1.75
2022-08-02T12:53:18.562Z,1.83
2022-08-02T12:54:23.043Z,1.80
2022-08-02T12:55:59.512Z,1.90
2022-08-02T12:56:55.290Z,1.80
2022-08-02T12:58:02.967Z,2.10
2022-08-02T12:59:05.825Z,1.92
2022-08-02T13:00:09.876Z,1.80
2022-08-02T13:01:11.680Z,1.85
2022-08-02T13:02:14.780Z,1.88
2022-08-02T13:04:10.269Z,3.25
2022-08-02T13:04:39.146Z,2.00
2022-08-02T13:05:56.055Z,1.73
2022-08-02T13:07:00.266Z,1.60
2022-08-02T13:08:03.606Z,1.80
2022-08-02T13:09:15.960Z,1.60
2022-08-02T13:10:18.340Z,1.88
2022-08-02T13:11:20.624Z,1.67
2022-08-02T13:12:22.533Z,1.73
2022-08-02T13:13:24.261Z,1.88
2022-08-02T13:14:25.973Z,1.60
2022-08-02T13:15:50.164Z,1.45
2022-08-02T13:16:51.544Z,1.60
2022-08-02T13:17:53.724Z,1.70
2022-08-02T13:18:55.454Z,1.70
2022-08-02T13:19:57.260Z,1.60
2022-08-02T13:20:59.229Z,2.03
2022-08-02T13:22:03.998Z,2.00
2022-08-02T13:23:05.932Z,1.63
2022-08-02T13:24:27.379Z,1.77
2022-08-02T13:25:29.976Z,2.35
2022-08-02T13:26:31.687Z,2.08
2022-08-02T13:27:34.100Z,1.90
2022-08-02T13:28:36.054Z,1.60
2022-08-02T13:29:38.298Z,2.10
2022-08-02T13:30:40.017Z,1.92
2022-08-02T13:31:41.709Z,2.00
2022-08-02T13:32:43.856Z,2.10
2022-08-02T13:33:45.749Z,1.67
2022-08-02T13:34:48.189Z,1.70
2022-08-02T13:35:50.325Z,1.70
2022-08-02T13:36:52.422Z,1.83
2022-08-02T13:37:54.189Z,1.73
2022-08-02T13:38:55.921Z,1.80
2022-08-02T13:40:19.114Z,1.70
2022-08-02T13:41:19.349Z,1.80
2022-08-02T13:42:21.787Z,1.80
2022-08-02T13:43:23.538Z,1.90
2022-08-02T13:44:25.386Z,2.17
2022-08-02T13:45:27.107Z,1.77
2022-08-02T13:46:29.758Z,1.70
2022-08-02T13:47:36.286Z,1.65
2022-08-02T13:48:53.286Z,1.95
2022-08-02T13:49:55.144Z,1.67
2022-08-02T13:50:57.122Z,1.70
2022-08-02T13:51:58.973Z,1.80
2022-08-02T13:53:00.772Z,2.05
2022-08-02T13:54:03.007Z,2.05
2022-08-02T13:55:05.449Z,2.33
2022-08-02T13:56:14.938Z,1.77
2022-08-02T13:57:16.708Z,1.77
2022-08-02T13:58:18.543Z,2.20
2022-08-02T13:59:55.363Z,1.92
2022-08-02T14:00:42.245Z,1.83
2022-08-02T14:01:44.042Z,2.20
2022-08-02T14:02:45.954Z,1.70
2022-08-02T14:04:07.485Z,1.80
2022-08-02T14:05:09.652Z,2.28
2022-08-02T14:06:11.415Z,2.20
2022-08-02T14:07:13.352Z,2.67
2022-08-02T14:08:19.410Z,2.60
2022-08-02T14:09:21.618Z,2.88
2022-08-02T14:10:26.166Z,2.42
2022-08-02T14:11:32.443Z,2.70
2022-08-02T14:12:34.252Z,3.10
2022-08-02T14:13:36.462Z,2.85
2022-08-02T14:14:38.425Z,3.10
2022-08-02T14:15:40.505Z,3.00
2022-08-02T14:16:42.452Z,3.28
2022-08-02T14:17:46.284Z,3.20
2022-08-02T14:18:48.052Z,3.65
2022-08-02T14:19:51.140Z,3.60
2022-08-02T14:20:52.936Z,3.92
2022-08-02T14:21:54.822Z,4.30
2022-08-02T14:23:13.460Z,3.50
2022-08-02T14:24:21.789Z,2.80
2022-08-02T14:25:23.576Z,2.60
2022-08-02T14:26:27.785Z,2.88
2022-08-02T14:27:31.193Z,2.75
2022-08-02T14:28:41.240Z,2.78
2022-08-02T14:29:43.180Z,2.50
2022-08-02T14:30:45.532Z,2.28
2022-08-02T14:31:47.352Z,2.50
2022-08-02T14:32:49.265Z,2.55
2022-08-02T14:33:51.009Z,2.25
2022-08-02T14:34:52.942Z,2.65
2022-08-02T14:35:56.793Z,2.35
2022-08-02T14:36:58.643Z,2.38
2022-08-02T14:38:00.726Z,2.25
2022-08-02T14:39:02.472Z,2.28
2022-08-02T14:40:04.953Z,2.63
2022-08-02T14:41:06.832Z,3.40
2022-08-02T14:42:08.573Z,3.30